sensor_id;sensor_type;location;lat;lon;timestamp;P1;durP1;ratioP1;P2;durP2;ratioP2
70126;SDS011;57491;42.694;23.314;2023-06-10T00:02:15;9.90;;;8.05;;
70126;SDS011;57491;42.694;23.314;2023-06-10T00:04:42;9.95;;;7.35;;
70126;SDS011;57491;42.694;23.314;2023-06-10T00:07:15;10.68;;;6.55;;
70126;SDS011;57491;42.694;23.314;2023-06-10T00:09:43;11.27;;;6.55;;
70126;SDS011;57491;42.694;23.314;2023-06-10T00:14:38;9.77;;;6.50;;
70126;SDS011;57491;42.694;23.314;2023-06-10T00:17:06;7.07;;;6.28;;
70126;SDS011;57491;42.694;23.314;2023-06-10T00:19:35;8.13;;;6.05;;
70126;SDS011;57491;42.694;23.314;2023-06-10T00:22:05;10.80;;;5.80;;
70126;SDS011;57491;42.694;23.314;2023-06-10T00:24:37;9.43;;;6.72;;
70126;SDS011;57491;42.694;23.314;2023-06-10T00:27:04;12.63;;;6.60;;
70126;SDS011;57491;42.694;23.314;2023-06-10T00:29:32;8.90;;;6.65;;
70126;SDS011;57491;42.694;23.314;2023-06-10T00:31:59;11.70;;;7.70;;
70126;SDS011;57491;42.694;23.314;2023-06-10T00:34:26;8.68;;;6.38;;
70126;SDS011;57491;42.694;23.314;2023-06-10T00:36:54;8.52;;;6.85;;
70126;SDS011;57491;42.694;23.314;2023-06-10T00:39:21;8.50;;;6.80;;
70126;SDS011;57491;42.694;23.314;2023-06-10T00:41:49;7.67;;;6.83;;
70126;SDS011;57491;42.694;23.314;2023-06-10T00:44:17;9.23;;;6.57;;
70126;SDS011;57491;42.694;23.314;2023-06-10T00:46:44;9.20;;;7.82;;
70126;SDS011;57491;42.694;23.314;2023-06-10T00:49:12;13.13;;;6.93;;
70126;SDS011;57491;42.694;23.314;2023-06-10T00:51:39;10.32;;;7.32;;
70126;SDS011;57491;42.694;23.314;2023-06-10T00:54:06;9.70;;;6.75;;
70126;SDS011;57491;42.694;23.314;2023-06-10T00:56:34;8.50;;;7.07;;
70126;SDS011;57491;42.694;23.314;2023-06-10T01:01:30;10.88;;;7.63;;
70126;SDS011;57491;42.694;23.314;2023-06-10T01:03:58;12.85;;;8.95;;
70126;SDS011;57491;42.694;23.314;2023-06-10T01:06:36;14.37;;;9.00;;
70126;SDS011;57491;42.694;23.314;2023-06-10T01:09:13;10.95;;;8.50;;
70126;SDS011;57491;42.694;23.314;2023-06-10T01:11:49;13.18;;;8.98;;
70126;SDS011;57491;42.694;23.314;2023-06-10T01:14:30;9.40;;;8.40;;
70126;SDS011;57491;42.694;23.314;2023-06-10T01:17:00;12.38;;;8.73;;
70126;SDS011;57491;42.694;23.314;2023-06-10T01:19:28;11.00;;;9.02;;
70126;SDS011;57491;42.694;23.314;2023-06-10T01:21:58;12.25;;;10.80;;
70126;SDS011;57491;42.694;23.314;2023-06-10T01:24:26;12.43;;;10.05;;
70126;SDS011;57491;42.694;23.314;2023-06-10T01:26:53;22.75;;;17.40;;
70126;SDS011;57491;42.694;23.314;2023-06-10T01:29:26;34.60;;;22.33;;
70126;SDS011;57491;42.694;23.314;2023-06-10T01:32:00;28.98;;;20.15;;
70126;SDS011;57491;42.694;23.314;2023-06-10T01:34:31;28.55;;;20.58;;
70126;SDS011;57491;42.694;23.314;2023-06-10T01:37:01;24.67;;;18.50;;
70126;SDS011;57491;42.694;23.314;2023-06-10T01:39:30;22.00;;;14.63;;
70126;SDS011;57491;42.694;23.314;2023-06-10T01:41:59;19.77;;;15.35;;
70126;SDS011;57491;42.694;23.314;2023-06-10T01:44:27;21.30;;;14.85;;
70126;SDS011;57491;42.694;23.314;2023-06-10T01:46:54;20.27;;;12.67;;
70126;SDS011;57491;42.694;23.314;2023-06-10T01:49:21;22.50;;;14.50;;
70126;SDS011;57491;42.694;23.314;2023-06-10T01:51:50;19.27;;;13.23;;
70126;SDS011;57491;42.694;23.314;2023-06-10T01:54:18;17.53;;;11.27;;
70126;SDS011;57491;42.694;23.314;2023-06-10T01:56:45;11.30;;;9.98;;
70126;SDS011;57491;42.694;23.314;2023-06-10T01:59:12;9.60;;;8.13;;
70126;SDS011;57491;42.694;23.314;2023-06-10T02:01:39;14.20;;;8.50;;
70126;SDS011;57491;42.694;23.314;2023-06-10T02:04:06;11.00;;;8.07;;
70126;SDS011;57491;42.694;23.314;2023-06-10T02:06:33;12.13;;;8.23;;
70126;SDS011;57491;42.694;23.314;2023-06-10T02:09:00;14.75;;;8.77;;
70126;SDS011;57491;42.694;23.314;2023-06-10T02:11:29;8.68;;;7.35;;
70126;SDS011;57491;42.694;23.314;2023-06-10T02:13:56;11.02;;;7.57;;
70126;SDS011;57491;42.694;23.314;2023-06-10T02:16:23;16.85;;;8.82;;
70126;SDS011;57491;42.694;23.314;2023-06-10T02:18:50;9.73;;;7.55;;
70126;SDS011;57491;42.694;23.314;2023-06-10T02:21:18;10.73;;;7.72;;
70126;SDS011;57491;42.694;23.314;2023-06-10T02:23:45;11.85;;;8.38;;
70126;SDS011;57491;42.694;23.314;2023-06-10T02:26:12;11.68;;;7.82;;
70126;SDS011;57491;42.694;23.314;2023-06-10T02:28:43;10.32;;;7.82;;
70126;SDS011;57491;42.694;23.314;2023-06-10T02:31:10;10.43;;;7.30;;
70126;SDS011;57491;42.694;23.314;2023-06-10T02:33:37;8.57;;;7.00;;
70126;SDS011;57491;42.694;23.314;2023-06-10T02:38:32;12.15;;;7.28;;
70126;SDS011;57491;42.694;23.314;2023-06-10T02:40:59;11.63;;;7.10;;
70126;SDS011;57491;42.694;23.314;2023-06-10T02:43:27;11.73;;;7.53;;
70126;SDS011;57491;42.694;23.314;2023-06-10T02:45:56;14.18;;;7.20;;
70126;SDS011;57491;42.694;23.314;2023-06-10T02:48:23;7.57;;;6.45;;
70126;SDS011;57491;42.694;23.314;2023-06-10T02:50:50;10.13;;;7.07;;
70126;SDS011;57491;42.694;23.314;2023-06-10T02:53:18;12.73;;;7.07;;
70126;SDS011;57491;42.694;23.314;2023-06-10T02:55:46;8.55;;;6.45;;
70126;SDS011;57491;42.694;23.314;2023-06-10T02:58:14;10.60;;;6.53;;
70126;SDS011;57491;42.694;23.314;2023-06-10T03:03:10;8.70;;;6.30;;
70126;SDS011;57491;42.694;23.314;2023-06-10T03:05:40;9.65;;;6.78;;
70126;SDS011;57491;42.694;23.314;2023-06-10T03:08:07;7.53;;;6.30;;
70126;SDS011;57491;42.694;23.314;2023-06-10T03:10:34;8.93;;;7.25;;
70126;SDS011;57491;42.694;23.314;2023-06-10T03:13:02;11.60;;;7.20;;
70126;SDS011;57491;42.694;23.314;2023-06-10T03:15:29;9.50;;;7.38;;
70126;SDS011;57491;42.694;23.314;2023-06-10T03:17:58;11.57;;;6.80;;
70126;SDS011;57491;42.694;23.314;2023-06-10T03:22:55;13.00;;;10.65;;
70126;SDS011;57491;42.694;23.314;2023-06-10T03:25:22;14.17;;;10.67;;
70126;SDS011;57491;42.694;23.314;2023-06-10T03:27:51;16.77;;;10.60;;
70126;SDS011;57491;42.694;23.314;2023-06-10T03:30:18;15.50;;;10.33;;
70126;SDS011;57491;42.694;23.314;2023-06-10T03:32:45;12.55;;;10.00;;
70126;SDS011;57491;42.694;23.314;2023-06-10T03:35:14;12.80;;;9.15;;
70126;SDS011;57491;42.694;23.314;2023-06-10T03:37:44;10.70;;;9.45;;
70126;SDS011;57491;42.694;23.314;2023-06-10T03:40:11;17.38;;;9.43;;
70126;SDS011;57491;42.694;23.314;2023-06-10T03:42:39;16.50;;;9.48;;
70126;SDS011;57491;42.694;23.314;2023-06-10T03:45:06;16.48;;;9.95;;
70126;SDS011;57491;42.694;23.314;2023-06-10T03:47:34;15.48;;;9.35;;
70126;SDS011;57491;42.694;23.314;2023-06-10T03:50:02;12.07;;;9.75;;
70126;SDS011;57491;42.694;23.314;2023-06-10T03:52:30;12.98;;;10.02;;
70126;SDS011;57491;42.694;23.314;2023-06-10T03:54:58;12.98;;;9.75;;
70126;SDS011;57491;42.694;23.314;2023-06-10T03:57:26;15.23;;;9.50;;
70126;SDS011;57491;42.694;23.314;2023-06-10T03:59:53;11.77;;;8.80;;
70126;SDS011;57491;42.694;23.314;2023-06-10T04:02:20;11.95;;;9.02;;
70126;SDS011;57491;42.694;23.314;2023-06-10T04:04:48;13.00;;;8.23;;
70126;SDS011;57491;42.694;23.314;2023-06-10T04:07:16;10.73;;;7.55;;
70126;SDS011;57491;42.694;23.314;2023-06-10T04:09:44;11.45;;;8.07;;
70126;SDS011;57491;42.694;23.314;2023-06-10T04:12:13;12.63;;;7.60;;
70126;SDS011;57491;42.694;23.314;2023-06-10T04:14:42;10.45;;;7.63;;
70126;SDS011;57491;42.694;23.314;2023-06-10T04:17:09;11.93;;;8.40;;
70126;SDS011;57491;42.694;23.314;2023-06-10T04:19:36;14.20;;;8.07;;
70126;SDS011;57491;42.694;23.314;2023-06-10T04:22:06;13.85;;;8.25;;
70126;SDS011;57491;42.694;23.314;2023-06-10T04:24:33;14.20;;;8.55;;
70126;SDS011;57491;42.694;23.314;2023-06-10T04:27:03;15.25;;;8.88;;
70126;SDS011;57491;42.694;23.314;2023-06-10T04:29:32;15.90;;;8.98;;
70126;SDS011;57491;42.694;23.314;2023-06-10T04:31:59;13.45;;;9.43;;
70126;SDS011;57491;42.694;23.314;2023-06-10T04:34:27;11.40;;;8.20;;
70126;SDS011;57491;42.694;23.314;2023-06-10T04:36:57;11.88;;;8.88;;
70126;SDS011;57491;42.694;23.314;2023-06-10T04:39:24;11.43;;;9.37;;
70126;SDS011;57491;42.694;23.314;2023-06-10T04:41:51;11.05;;;8.50;;
70126;SDS011;57491;42.694;23.314;2023-06-10T04:44:18;12.35;;;8.38;;
70126;SDS011;57491;42.694;23.314;2023-06-10T04:46:48;12.40;;;9.25;;
70126;SDS011;57491;42.694;23.314;2023-06-10T04:49:15;11.32;;;8.38;;
70126;SDS011;57491;42.694;23.314;2023-06-10T04:51:42;10.65;;;9.50;;
70126;SDS011;57491;42.694;23.314;2023-06-10T04:54:09;14.10;;;8.98;;
70126;SDS011;57491;42.694;23.314;2023-06-10T04:56:36;17.92;;;9.35;;
70126;SDS011;57491;42.694;23.314;2023-06-10T04:59:04;13.15;;;10.10;;
70126;SDS011;57491;42.694;23.314;2023-06-10T05:01:31;10.45;;;8.70;;
70126;SDS011;57491;42.694;23.314;2023-06-10T05:04:00;12.47;;;8.73;;
70126;SDS011;57491;42.694;23.314;2023-06-10T05:06:27;13.13;;;9.55;;
70126;SDS011;57491;42.694;23.314;2023-06-10T05:08:54;10.88;;;8.73;;
70126;SDS011;57491;42.694;23.314;2023-06-10T05:11:21;9.57;;;8.43;;
70126;SDS011;57491;42.694;23.314;2023-06-10T05:13:48;10.10;;;7.00;;
70126;SDS011;57491;42.694;23.314;2023-06-10T05:16:15;13.82;;;8.20;;
70126;SDS011;57491;42.694;23.314;2023-06-10T05:18:43;10.07;;;7.05;;
70126;SDS011;57491;42.694;23.314;2023-06-10T05:21:11;9.53;;;6.80;;
70126;SDS011;57491;42.694;23.314;2023-06-10T05:23:39;11.05;;;6.70;;
70126;SDS011;57491;42.694;23.314;2023-06-10T05:26:06;14.88;;;8.43;;
70126;SDS011;57491;42.694;23.314;2023-06-10T05:28:33;11.52;;;6.65;;
70126;SDS011;57491;42.694;23.314;2023-06-10T05:31:00;11.95;;;7.32;;
70126;SDS011;57491;42.694;23.314;2023-06-10T05:33:31;11.63;;;8.48;;
70126;SDS011;57491;42.694;23.314;2023-06-10T05:35:58;12.55;;;7.90;;
70126;SDS011;57491;42.694;23.314;2023-06-10T05:38:27;11.57;;;7.45;;
70126;SDS011;57491;42.694;23.314;2023-06-10T05:40:54;13.82;;;8.40;;
70126;SDS011;57491;42.694;23.314;2023-06-10T05:43:24;12.80;;;7.22;;
70126;SDS011;57491;42.694;23.314;2023-06-10T05:45:51;13.32;;;7.70;;
70126;SDS011;57491;42.694;23.314;2023-06-10T05:48:18;11.20;;;7.82;;
70126;SDS011;57491;42.694;23.314;2023-06-10T05:50:46;11.23;;;7.63;;
70126;SDS011;57491;42.694;23.314;2023-06-10T05:53:13;10.98;;;7.53;;
70126;SDS011;57491;42.694;23.314;2023-06-10T05:55:43;13.77;;;8.45;;
70126;SDS011;57491;42.694;23.314;2023-06-10T05:58:10;13.60;;;7.50;;
70126;SDS011;57491;42.694;23.314;2023-06-10T06:00:38;11.43;;;7.90;;
70126;SDS011;57491;42.694;23.314;2023-06-10T06:03:06;9.70;;;7.55;;
70126;SDS011;57491;42.694;23.314;2023-06-10T06:05:36;13.05;;;8.07;;
70126;SDS011;57491;42.694;23.314;2023-06-10T06:08:06;11.52;;;7.50;;
70126;SDS011;57491;42.694;23.314;2023-06-10T06:10:34;11.65;;;7.32;;
70126;SDS011;57491;42.694;23.314;2023-06-10T06:13:02;13.45;;;7.43;;
70126;SDS011;57491;42.694;23.314;2023-06-10T06:15:29;12.95;;;7.00;;
70126;SDS011;57491;42.694;23.314;2023-06-10T06:17:57;11.35;;;8.48;;
70126;SDS011;57491;42.694;23.314;2023-06-10T06:20:24;11.18;;;7.88;;
70126;SDS011;57491;42.694;23.314;2023-06-10T06:22:51;11.63;;;7.43;;
70126;SDS011;57491;42.694;23.314;2023-06-10T06:25:18;11.50;;;7.10;;
70126;SDS011;57491;42.694;23.314;2023-06-10T06:27:45;8.65;;;7.10;;
70126;SDS011;57491;42.694;23.314;2023-06-10T06:30:14;11.43;;;8.05;;
70126;SDS011;57491;42.694;23.314;2023-06-10T06:32:41;14.05;;;8.25;;
70126;SDS011;57491;42.694;23.314;2023-06-10T06:35:09;17.92;;;10.02;;
70126;SDS011;57491;42.694;23.314;2023-06-10T06:37:39;11.05;;;8.35;;
70126;SDS011;57491;42.694;23.314;2023-06-10T06:40:07;11.95;;;8.40;;
70126;SDS011;57491;42.694;23.314;2023-06-10T06:42:35;13.82;;;8.82;;
70126;SDS011;57491;42.694;23.314;2023-06-10T06:45:03;11.27;;;7.78;;
70126;SDS011;57491;42.694;23.314;2023-06-10T06:47:32;11.40;;;8.00;;
70126;SDS011;57491;42.694;23.314;2023-06-10T06:50:02;11.82;;;8.32;;
70126;SDS011;57491;42.694;23.314;2023-06-10T06:52:29;15.40;;;7.43;;
70126;SDS011;57491;42.694;23.314;2023-06-10T06:54:56;8.18;;;7.10;;
70126;SDS011;57491;42.694;23.314;2023-06-10T06:57:23;13.05;;;7.60;;
70126;SDS011;57491;42.694;23.314;2023-06-10T06:59:50;13.82;;;7.82;;
70126;SDS011;57491;42.694;23.314;2023-06-10T07:04:46;12.43;;;7.40;;
70126;SDS011;57491;42.694;23.314;2023-06-10T07:07:15;12.57;;;6.28;;
70126;SDS011;57491;42.694;23.314;2023-06-10T07:09:42;11.30;;;8.30;;
70126;SDS011;57491;42.694;23.314;2023-06-10T07:12:09;13.50;;;8.65;;
70126;SDS011;57491;42.694;23.314;2023-06-10T07:14:36;13.40;;;7.65;;
70126;SDS011;57491;42.694;23.314;2023-06-10T07:17:04;11.23;;;8.45;;
70126;SDS011;57491;42.694;23.314;2023-06-10T07:22:00;15.27;;;7.68;;
70126;SDS011;57491;42.694;23.314;2023-06-10T07:24:30;10.13;;;7.00;;
70126;SDS011;57491;42.694;23.314;2023-06-10T07:26:57;10.52;;;6.43;;
70126;SDS011;57491;42.694;23.314;2023-06-10T07:29:24;8.50;;;5.82;;
70126;SDS011;57491;42.694;23.314;2023-06-10T07:31:51;11.23;;;6.88;;
70126;SDS011;57491;42.694;23.314;2023-06-10T07:34:18;8.60;;;5.15;;
70126;SDS011;57491;42.694;23.314;2023-06-10T07:36:46;7.72;;;5.47;;
70126;SDS011;57491;42.694;23.314;2023-06-10T07:39:14;14.48;;;13.02;;
70126;SDS011;57491;42.694;23.314;2023-06-10T07:41:41;8.07;;;6.50;;
70126;SDS011;57491;42.694;23.314;2023-06-10T07:44:09;11.02;;;7.65;;
70126;SDS011;57491;42.694;23.314;2023-06-10T07:46:36;9.70;;;5.90;;
70126;SDS011;57491;42.694;23.314;2023-06-10T07:49:03;8.45;;;4.90;;
70126;SDS011;57491;42.694;23.314;2023-06-10T07:51:31;7.43;;;4.90;;
70126;SDS011;57491;42.694;23.314;2023-06-10T07:53:58;9.63;;;4.90;;
70126;SDS011;57491;42.694;23.314;2023-06-10T07:56:26;6.03;;;4.70;;
70126;SDS011;57491;42.694;23.314;2023-06-10T07:58:53;6.57;;;5.10;;
70126;SDS011;57491;42.694;23.314;2023-06-10T08:01:22;10.15;;;5.57;;
70126;SDS011;57491;42.694;23.314;2023-06-10T08:03:49;6.97;;;5.43;;
70126;SDS011;57491;42.694;23.314;2023-06-10T08:06:16;6.13;;;5.07;;
70126;SDS011;57491;42.694;23.314;2023-06-10T08:11:11;8.57;;;5.20;;
70126;SDS011;57491;42.694;23.314;2023-06-10T08:13:41;6.30;;;4.82;;
70126;SDS011;57491;42.694;23.314;2023-06-10T08:16:08;7.57;;;4.43;;
70126;SDS011;57491;42.694;23.314;2023-06-10T08:21:02;6.60;;;4.55;;
70126;SDS011;57491;42.694;23.314;2023-06-10T08:23:29;6.60;;;4.50;;
70126;SDS011;57491;42.694;23.314;2023-06-10T08:25:56;4.43;;;3.88;;
70126;SDS011;57491;42.694;23.314;2023-06-10T08:30:52;5.65;;;3.92;;
70126;SDS011;57491;42.694;23.314;2023-06-10T08:33:19;7.18;;;4.85;;
70126;SDS011;57491;42.694;23.314;2023-06-10T08:35:46;7.13;;;4.68;;
70126;SDS011;57491;42.694;23.314;2023-06-10T08:38:13;7.22;;;4.57;;
70126;SDS011;57491;42.694;23.314;2023-06-10T08:40:42;4.13;;;3.38;;
70126;SDS011;57491;42.694;23.314;2023-06-10T08:43:10;4.40;;;3.65;;
70126;SDS011;57491;42.694;23.314;2023-06-10T08:45:45;5.93;;;3.33;;
70126;SDS011;57491;42.694;23.314;2023-06-10T08:48:18;14.15;;;4.32;;
70126;SDS011;57491;42.694;23.314;2023-06-10T08:50:47;9.05;;;5.68;;
70126;SDS011;57491;42.694;23.314;2023-06-10T08:53:18;5.95;;;4.38;;
70126;SDS011;57491;42.694;23.314;2023-06-10T08:55:46;10.73;;;5.35;;
70126;SDS011;57491;42.694;23.314;2023-06-10T08:58:20;8.73;;;4.20;;
70126;SDS011;57491;42.694;23.314;2023-06-10T09:00:51;8.45;;;4.40;;
70126;SDS011;57491;42.694;23.314;2023-06-10T09:03:20;4.72;;;3.35;;
70126;SDS011;57491;42.694;23.314;2023-06-10T09:05:49;4.50;;;4.00;;
70126;SDS011;57491;42.694;23.314;2023-06-10T09:08:17;4.00;;;3.47;;
70126;SDS011;57491;42.694;23.314;2023-06-10T09:10:44;4.45;;;3.88;;
70126;SDS011;57491;42.694;23.314;2023-06-10T09:13:12;6.57;;;4.00;;
70126;SDS011;57491;42.694;23.314;2023-06-10T09:15:41;4.00;;;3.70;;
70126;SDS011;57491;42.694;23.314;2023-06-10T09:18:08;4.40;;;4.00;;
70126;SDS011;57491;42.694;23.314;2023-06-10T09:20:37;5.20;;;4.10;;
70126;SDS011;57491;42.694;23.314;2023-06-10T09:23:05;4.70;;;3.92;;
70126;SDS011;57491;42.694;23.314;2023-06-10T09:25:36;6.60;;;4.20;;
70126;SDS011;57491;42.694;23.314;2023-06-10T09:28:05;7.50;;;4.45;;
70126;SDS011;57491;42.694;23.314;2023-06-10T09:30:40;6.07;;;5.05;;
70126;SDS011;57491;42.694;23.314;2023-06-10T09:35:45;10.10;;;4.40;;
70126;SDS011;57491;42.694;23.314;2023-06-10T09:38:14;7.87;;;4.90;;
70126;SDS011;57491;42.694;23.314;2023-06-10T09:40:49;5.32;;;4.25;;
70126;SDS011;57491;42.694;23.314;2023-06-10T09:43:17;4.78;;;4.32;;
70126;SDS011;57491;42.694;23.314;2023-06-10T09:45:44;9.40;;;5.47;;
70126;SDS011;57491;42.694;23.314;2023-06-10T09:48:14;8.25;;;5.32;;
70126;SDS011;57491;42.694;23.314;2023-06-10T09:50:43;9.98;;;5.15;;
70126;SDS011;57491;42.694;23.314;2023-06-10T09:53:12;7.32;;;4.95;;
70126;SDS011;57491;42.694;23.314;2023-06-10T09:55:41;5.03;;;3.90;;
70126;SDS011;57491;42.694;23.314;2023-06-10T09:58:11;5.32;;;3.85;;
70126;SDS011;57491;42.694;23.314;2023-06-10T10:00:38;5.88;;;3.97;;
70126;SDS011;57491;42.694;23.314;2023-06-10T10:03:08;4.15;;;3.60;;
70126;SDS011;57491;42.694;23.314;2023-06-10T10:05:35;7.95;;;4.28;;
70126;SDS011;57491;42.694;23.314;2023-06-10T10:10:31;7.20;;;3.00;;
70126;SDS011;57491;42.694;23.314;2023-06-10T10:12:58;4.35;;;3.47;;
70126;SDS011;57491;42.694;23.314;2023-06-10T10:15:28;2.83;;;2.50;;
70126;SDS011;57491;42.694;23.314;2023-06-10T10:18:00;4.57;;;3.83;;
70126;SDS011;57491;42.694;23.314;2023-06-10T10:20:37;4.18;;;3.33;;
70126;SDS011;57491;42.694;23.314;2023-06-10T10:23:20;4.30;;;3.53;;
70126;SDS011;57491;42.694;23.314;2023-06-10T10:25:53;5.88;;;4.05;;
70126;SDS011;57491;42.694;23.314;2023-06-10T10:28:22;6.97;;;4.75;;
70126;SDS011;57491;42.694;23.314;2023-06-10T10:31:02;6.10;;;4.00;;
70126;SDS011;57491;42.694;23.314;2023-06-10T10:33:36;5.53;;;3.80;;
70126;SDS011;57491;42.694;23.314;2023-06-10T10:36:09;4.25;;;3.75;;
70126;SDS011;57491;42.694;23.314;2023-06-10T10:38:41;5.40;;;3.80;;
70126;SDS011;57491;42.694;23.314;2023-06-10T10:41:09;4.03;;;3.65;;
70126;SDS011;57491;42.694;23.314;2023-06-10T10:43:36;11.60;;;4.97;;
70126;SDS011;57491;42.694;23.314;2023-06-10T10:46:11;3.92;;;3.42;;
70126;SDS011;57491;42.694;23.314;2023-06-10T10:48:39;4.68;;;3.35;;
70126;SDS011;57491;42.694;23.314;2023-06-10T10:51:07;5.90;;;4.03;;
70126;SDS011;57491;42.694;23.314;2023-06-10T10:53:36;3.95;;;3.63;;
70126;SDS011;57491;42.694;23.314;2023-06-10T10:56:06;4.22;;;3.60;;
70126;SDS011;57491;42.694;23.314;2023-06-10T10:58:34;6.35;;;3.70;;
70126;SDS011;57491;42.694;23.314;2023-06-10T11:01:09;5.95;;;3.78;;
70126;SDS011;57491;42.694;23.314;2023-06-10T11:03:44;5.15;;;4.30;;
70126;SDS011;57491;42.694;23.314;2023-06-10T11:06:13;5.57;;;3.80;;
70126;SDS011;57491;42.694;23.314;2023-06-10T11:08:46;9.35;;;3.80;;
70126;SDS011;57491;42.694;23.314;2023-06-10T11:11:20;5.82;;;3.75;;
70126;SDS011;57491;42.694;23.314;2023-06-10T11:13:59;3.78;;;3.28;;
70126;SDS011;57491;42.694;23.314;2023-06-10T11:16:38;5.07;;;3.13;;
70126;SDS011;57491;42.694;23.314;2023-06-10T11:19:06;4.50;;;3.35;;
70126;SDS011;57491;42.694;23.314;2023-06-10T11:21:36;5.53;;;3.53;;
70126;SDS011;57491;42.694;23.314;2023-06-10T11:24:26;4.55;;;3.90;;
70126;SDS011;57491;42.694;23.314;2023-06-10T11:26:55;6.22;;;4.80;;
70126;SDS011;57491;42.694;23.314;2023-06-10T11:29:47;7.20;;;5.50;;
70126;SDS011;57491;42.694;23.314;2023-06-10T11:32:24;4.70;;;4.18;;
70126;SDS011;57491;42.694;23.314;2023-06-10T11:34:56;6.07;;;4.80;;
70126;SDS011;57491;42.694;23.314;2023-06-10T11:37:24;6.57;;;4.40;;
70126;SDS011;57491;42.694;23.314;2023-06-10T11:39:54;5.63;;;5.10;;
70126;SDS011;57491;42.694;23.314;2023-06-10T11:42:24;5.78;;;4.60;;
70126;SDS011;57491;42.694;23.314;2023-06-10T11:44:52;7.60;;;5.07;;
70126;SDS011;57491;42.694;23.314;2023-06-10T11:47:20;6.30;;;4.75;;
70126;SDS011;57491;42.694;23.314;2023-06-10T11:49:55;5.63;;;4.07;;
70126;SDS011;57491;42.694;23.314;2023-06-10T11:52:25;5.07;;;4.30;;
70126;SDS011;57491;42.694;23.314;2023-06-10T11:54:57;7.43;;;4.82;;
70126;SDS011;57491;42.694;23.314;2023-06-10T11:57:26;7.10;;;4.50;;
70126;SDS011;57491;42.694;23.314;2023-06-10T11:59:53;9.73;;;4.35;;
70126;SDS011;57491;42.694;23.314;2023-06-10T12:02:20;6.22;;;4.03;;
70126;SDS011;57491;42.694;23.314;2023-06-10T12:04:48;7.40;;;4.97;;
70126;SDS011;57491;42.694;23.314;2023-06-10T12:09:46;4.03;;;3.45;;
70126;SDS011;57491;42.694;23.314;2023-06-10T12:14:54;7.32;;;3.92;;
70126;SDS011;57491;42.694;23.314;2023-06-10T12:17:23;4.05;;;3.63;;
70126;SDS011;57491;42.694;23.314;2023-06-10T12:19:51;4.38;;;3.65;;
70126;SDS011;57491;42.694;23.314;2023-06-10T12:24:46;4.90;;;3.50;;
70126;SDS011;57491;42.694;23.314;2023-06-10T12:27:26;6.05;;;3.55;;
70126;SDS011;57491;42.694;23.314;2023-06-10T12:29:57;4.90;;;3.92;;
70126;SDS011;57491;42.694;23.314;2023-06-10T12:32:34;3.90;;;3.50;;
70126;SDS011;57491;42.694;23.314;2023-06-10T12:35:03;5.50;;;4.00;;
70126;SDS011;57491;42.694;23.314;2023-06-10T12:37:31;4.90;;;3.83;;
70126;SDS011;57491;42.694;23.314;2023-06-10T12:40:00;7.60;;;3.55;;
70126;SDS011;57491;42.694;23.314;2023-06-10T12:42:29;6.05;;;4.10;;
70126;SDS011;57491;42.694;23.314;2023-06-10T12:44:58;6.35;;;4.00;;
70126;SDS011;57491;42.694;23.314;2023-06-10T12:47:29;6.28;;;4.10;;
70126;SDS011;57491;42.694;23.314;2023-06-10T12:49:58;3.80;;;3.40;;
70126;SDS011;57491;42.694;23.314;2023-06-10T12:52:25;4.78;;;3.30;;
70126;SDS011;57491;42.694;23.314;2023-06-10T12:54:53;4.22;;;3.83;;
70126;SDS011;57491;42.694;23.314;2023-06-10T12:57:20;8.18;;;3.53;;
70126;SDS011;57491;42.694;23.314;2023-06-10T12:59:47;4.95;;;4.10;;
70126;SDS011;57491;42.694;23.314;2023-06-10T13:02:19;7.45;;;4.70;;
70126;SDS011;57491;42.694;23.314;2023-06-10T13:04:49;4.07;;;3.25;;
70126;SDS011;57491;42.694;23.314;2023-06-10T13:07:16;5.60;;;3.65;;
70126;SDS011;57491;42.694;23.314;2023-06-10T13:33:37;10.25;;;5.05;;
70126;SDS011;57491;42.694;23.314;2023-06-10T13:36:06;9.85;;;5.32;;
70126;SDS011;57491;42.694;23.314;2023-06-10T13:38:33;6.93;;;4.53;;
70126;SDS011;57491;42.694;23.314;2023-06-10T13:41:00;4.97;;;4.50;;
70126;SDS011;57491;42.694;23.314;2023-06-10T13:43:27;10.07;;;5.05;;
70126;SDS011;57491;42.694;23.314;2023-06-10T13:45:55;8.32;;;4.93;;
70126;SDS011;57491;42.694;23.314;2023-06-10T13:48:22;6.25;;;4.25;;
70126;SDS011;57491;42.694;23.314;2023-06-10T13:50:51;6.25;;;4.88;;
70126;SDS011;57491;42.694;23.314;2023-06-10T13:53:18;5.95;;;4.55;;
70126;SDS011;57491;42.694;23.314;2023-06-10T13:55:45;7.53;;;4.82;;
70126;SDS011;57491;42.694;23.314;2023-06-10T13:58:13;5.47;;;4.55;;
70126;SDS011;57491;42.694;23.314;2023-06-10T14:00:40;9.85;;;5.78;;
70126;SDS011;57491;42.694;23.314;2023-06-10T14:03:07;6.75;;;5.15;;
70126;SDS011;57491;42.694;23.314;2023-06-10T14:05:34;8.48;;;5.30;;
70126;SDS011;57491;42.694;23.314;2023-06-10T14:08:03;13.00;;;5.45;;
70126;SDS011;57491;42.694;23.314;2023-06-10T14:10:31;9.68;;;5.40;;
70126;SDS011;57491;42.694;23.314;2023-06-10T14:12:58;7.22;;;4.93;;
70126;SDS011;57491;42.694;23.314;2023-06-10T14:15:25;8.73;;;5.40;;
70126;SDS011;57491;42.694;23.314;2023-06-10T14:17:52;11.38;;;4.90;;
70126;SDS011;57491;42.694;23.314;2023-06-10T14:20:20;7.90;;;5.20;;
70126;SDS011;57491;42.694;23.314;2023-06-10T14:22:47;11.57;;;4.97;;
70126;SDS011;57491;42.694;23.314;2023-06-10T14:25:16;7.07;;;5.10;;
70126;SDS011;57491;42.694;23.314;2023-06-10T14:27:43;10.95;;;4.80;;
70126;SDS011;57491;42.694;23.314;2023-06-10T14:30:12;7.57;;;5.10;;
70126;SDS011;57491;42.694;23.314;2023-06-10T14:32:43;8.93;;;4.88;;
70126;SDS011;57491;42.694;23.314;2023-06-10T14:35:10;15.18;;;5.85;;
70126;SDS011;57491;42.694;23.314;2023-06-10T14:37:37;28.48;;;13.07;;
70126;SDS011;57491;42.694;23.314;2023-06-10T14:40:05;21.52;;;8.05;;
70126;SDS011;57491;42.694;23.314;2023-06-10T14:42:34;8.27;;;4.50;;
70126;SDS011;57491;42.694;23.314;2023-06-10T14:45:01;5.53;;;5.00;;
70126;SDS011;57491;42.694;23.314;2023-06-10T14:47:28;4.88;;;4.20;;
70126;SDS011;57491;42.694;23.314;2023-06-10T14:49:55;5.70;;;4.68;;
70126;SDS011;57491;42.694;23.314;2023-06-10T14:52:22;6.25;;;4.07;;
70126;SDS011;57491;42.694;23.314;2023-06-10T14:54:50;9.68;;;5.47;;
70126;SDS011;57491;42.694;23.314;2023-06-10T14:57:17;9.00;;;5.05;;
70126;SDS011;57491;42.694;23.314;2023-06-10T14:59:45;7.32;;;4.93;;
70126;SDS011;57491;42.694;23.314;2023-06-10T15:02:13;8.00;;;4.50;;
70126;SDS011;57491;42.694;23.314;2023-06-10T15:04:40;14.90;;;5.63;;
70126;SDS011;57491;42.694;23.314;2023-06-10T15:07:07;16.35;;;6.10;;
70126;SDS011;57491;42.694;23.314;2023-06-10T15:09:34;8.75;;;5.05;;
70126;SDS011;57491;42.694;23.314;2023-06-10T15:12:01;6.78;;;4.60;;
70126;SDS011;57491;42.694;23.314;2023-06-10T15:14:29;9.13;;;4.75;;
70126;SDS011;57491;42.694;23.314;2023-06-10T15:16:57;6.72;;;4.05;;
70126;SDS011;57491;42.694;23.314;2023-06-10T15:19:26;5.40;;;4.80;;
70126;SDS011;57491;42.694;23.314;2023-06-10T15:21:54;5.47;;;4.50;;
70126;SDS011;57491;42.694;23.314;2023-06-10T15:24:21;6.35;;;4.38;;
70126;SDS011;57491;42.694;23.314;2023-06-10T15:26:48;4.88;;;4.20;;
70126;SDS011;57491;42.694;23.314;2023-06-10T15:31:42;5.15;;;4.38;;
70126;SDS011;57491;42.694;23.314;2023-06-10T15:36:38;7.32;;;4.00;;
70126;SDS011;57491;42.694;23.314;2023-06-10T15:39:07;10.10;;;5.55;;
70126;SDS011;57491;42.694;23.314;2023-06-10T15:41:34;14.57;;;6.95;;
70126;SDS011;57491;42.694;23.314;2023-06-10T15:44:01;10.45;;;5.78;;